createdAt,value
2017-12-28T00:00:14.140Z,4.87
2017-12-28T00:01:14.841Z,4.89
2017-12-28T00:02:15.558Z,4.82
2017-12-28T00:03:16.263Z,4.84
2017-12-28T00:04:16.965Z,4.89
2017-12-28T00:05:17.670Z,4.86
2017-12-28T00:06:18.373Z,4.89
2017-12-28T00:07:19.077Z,4.92
2017-12-28T00:08:19.793Z,4.90
2017-12-28T00:09:20.494Z,4.87
2017-12-28T00:10:21.198Z,4.86
2017-12-28T00:11:21.901Z,4.99
2017-12-28T00:12:22.603Z,4.94
2017-12-28T00:13:23.305Z,4.89
2017-12-28T00:14:24.020Z,4.99
2017-12-28T00:15:24.721Z,4.96
2017-12-28T00:16:25.423Z,4.87
2017-12-28T00:17:26.124Z,5.00
2017-12-28T00:18:26.839Z,4.89
2017-12-28T00:19:27.541Z,4.93
2017-12-28T00:20:28.244Z,4.99
2017-12-28T00:21:28.946Z,4.92
2017-12-28T00:22:29.648Z,5.00
2017-12-28T00:23:30.351Z,4.92
2017-12-28T00:24:31.055Z,4.92
2017-12-28T00:25:31.771Z,4.96
2017-12-28T00:26:32.475Z,5.00
2017-12-28T00:27:33.177Z,4.86
2017-12-28T00:28:33.883Z,4.94
2017-12-28T00:29:34.582Z,4.82
2017-12-28T00:30:35.284Z,4.86
2017-12-28T00:31:35.985Z,4.84
2017-12-28T00:32:36.688Z,4.89
2017-12-28T00:33:37.390Z,4.75
2017-12-28T00:34:38.093Z,4.77
2017-12-28T00:35:38.797Z,4.70
2017-12-28T00:36:39.501Z,4.71
2017-12-28T00:37:40.204Z,4.66
2017-12-28T00:38:40.909Z,4.70
2017-12-28T00:39:41.612Z,4.70
2017-12-28T00:40:42.319Z,4.71
2017-12-28T00:41:43.021Z,4.73
2017-12-28T00:42:43.724Z,4.67
2017-12-28T00:43:44.427Z,4.70
2017-12-28T00:44:45.132Z,4.77
2017-12-28T00:45:45.836Z,4.62
2017-12-28T00:46:46.541Z,4.71
2017-12-28T00:47:47.246Z,4.70
2017-12-28T00:48:47.950Z,4.62
2017-12-28T00:49:48.666Z,4.71
2017-12-28T00:50:49.367Z,4.73
2017-12-28T00:51:50.082Z,4.68
2017-12-28T00:52:50.798Z,4.73
2017-12-28T00:53:51.501Z,4.71
2017-12-28T00:54:52.202Z,4.67
2017-12-28T00:55:52.921Z,4.70
2017-12-28T00:56:53.624Z,4.78
2017-12-28T00:57:54.327Z,4.71
2017-12-28T00:58:55.031Z,4.63
2017-12-28T00:59:55.747Z,4.73
2017-12-28T01:00:56.449Z,4.71
2017-12-28T01:01:57.152Z,4.73
2017-12-28T01:02:57.854Z,4.70
2017-12-28T01:03:58.559Z,4.68
2017-12-28T01:04:59.275Z,4.73
2017-12-28T01:05:59.976Z,4.71
2017-12-28T01:07:00.679Z,4.73
2017-12-28T01:08:01.382Z,4.67
2017-12-28T01:09:02.084Z,4.68
2017-12-28T01:10:02.800Z,4.59
2017-12-28T01:11:03.505Z,4.63
2017-12-28T01:12:04.207Z,4.66
2017-12-28T01:13:04.922Z,4.67
2017-12-28T01:14:05.626Z,4.58
2017-12-28T01:15:06.327Z,4.60
2017-12-28T01:16:07.032Z,4.60
2017-12-28T01:17:07.733Z,4.58
2017-12-28T01:18:08.449Z,4.56
2017-12-28T01:19:09.152Z,4.68
2017-12-28T01:20:09.854Z,4.58
2017-12-28T01:21:10.555Z,4.53
2017-12-28T01:22:11.258Z,4.58
2017-12-28T01:23:11.962Z,4.62
2017-12-28T01:24:12.666Z,4.56
2017-12-28T01:25:13.371Z,4.50
2017-12-28T01:26:14.076Z,4.53
2017-12-28T01:27:14.779Z,4.56
2017-12-28T01:28:15.481Z,4.59
2017-12-28T01:29:16.185Z,4.52
2017-12-28T01:30:16.887Z,4.55
2017-12-28T01:31:17.590Z,4.52
2017-12-28T01:32:18.293Z,4.50
2017-12-28T01:33:19.009Z,4.52
2017-12-28T01:34:19.711Z,4.53
2017-12-28T01:35:20.414Z,4.48
2017-12-28T01:36:21.119Z,4.49
2017-12-28T01:37:21.819Z,4.55
2017-12-28T01:38:22.541Z,4.55
2017-12-28T01:39:23.223Z,4.58
2017-12-28T01:40:23.927Z,4.50
2017-12-28T01:41:24.633Z,4.52
2017-12-28T01:42:25.335Z,4.49
2017-12-28T01:43:26.049Z,4.45
2017-12-28T01:44:26.752Z,4.49
2017-12-28T01:45:27.454Z,4.41
2017-12-28T01:46:28.156Z,4.42
2017-12-28T01:47:28.861Z,4.45
2017-12-28T01:48:29.574Z,4.41
2017-12-28T01:49:30.291Z,4.42
2017-12-28T01:50:30.994Z,4.41
2017-12-28T01:51:31.705Z,4.40
2017-12-28T01:52:32.403Z,4.35
2017-12-28T01:53:33.106Z,4.37
2017-12-28T01:54:33.810Z,4.32
2017-12-28T01:55:34.528Z,4.30
2017-12-28T01:56:35.229Z,4.28
2017-12-28T01:57:35.944Z,4.31
2017-12-28T01:58:36.648Z,4.31
2017-12-28T01:59:37.351Z,4.32
2017-12-28T02:00:38.066Z,4.37
2017-12-28T02:01:38.771Z,4.30
2017-12-28T02:02:39.470Z,4.32
2017-12-28T02:03:40.173Z,4.35
2017-12-28T02:04:40.875Z,4.34
2017-12-28T02:05:41.577Z,4.30
2017-12-28T02:06:42.279Z,4.44
2017-12-28T02:07:42.982Z,4.32
2017-12-28T02:08:43.685Z,4.35
2017-12-28T02:09:44.387Z,4.38
2017-12-28T02:10:45.087Z,4.32
2017-12-28T02:11:45.787Z,4.37
2017-12-28T02:12:46.488Z,4.37
2017-12-28T02:13:47.189Z,4.40
2017-12-28T02:14:47.891Z,4.40
2017-12-28T02:15:48.598Z,4.42
2017-12-28T02:16:49.296Z,4.45
2017-12-28T02:17:50.011Z,4.37
2017-12-28T02:18:50.712Z,4.35
2017-12-28T02:19:51.425Z,4.40
2017-12-28T02:20:52.127Z,4.37
2017-12-28T02:21:52.828Z,4.45
2017-12-28T02:22:53.531Z,4.42
2017-12-28T02:23:54.233Z,4.32
2017-12-28T02:24:54.948Z,4.37
2017-12-28T02:25:55.651Z,4.40
2017-12-28T02:26:56.363Z,4.38
2017-12-28T02:27:57.066Z,4.38
2017-12-28T02:28:57.778Z,4.41
2017-12-28T02:29:58.480Z,4.48
2017-12-28T02:30:59.181Z,4.49
2017-12-28T02:31:59.883Z,4.35
2017-12-28T02:33:00.584Z,4.38
2017-12-28T02:34:01.285Z,4.41
2017-12-28T02:35:01.987Z,4.45
2017-12-28T02:36:02.767Z,4.37
2017-12-28T02:37:03.421Z,4.42
2017-12-28T02:38:04.131Z,4.38
2017-12-28T02:39:04.832Z,4.40
2017-12-28T02:40:05.547Z,4.38
2017-12-28T02:41:06.247Z,4.38
2017-12-28T02:42:06.956Z,4.41
2017-12-28T02:43:07.660Z,4.41
2017-12-28T02:44:08.360Z,4.31
2017-12-28T02:45:09.073Z,4.31
2017-12-28T02:46:09.776Z,4.30
2017-12-28T02:47:10.476Z,4.34
2017-12-28T02:48:11.187Z,4.31
2017-12-28T02:49:11.899Z,4.34
2017-12-28T02:50:12.615Z,4.34
2017-12-28T02:51:13.318Z,4.31
2017-12-28T02:52:14.037Z,4.28
2017-12-28T02:53:14.747Z,4.30
2017-12-28T02:54:15.448Z,4.31
2017-12-28T02:55:16.153Z,4.17
2017-12-28T02:56:16.850Z,4.22
2017-12-28T02:57:17.550Z,4.24
2017-12-28T02:58:18.253Z,4.12
2017-12-28T02:59:18.954Z,4.04
2017-12-28T03:00:19.656Z,4.05
2017-12-28T03:01:20.358Z,4.05
2017-12-28T03:02:21.061Z,4.04
2017-12-28T03:03:21.776Z,4.08
2017-12-28T03:04:22.477Z,4.04
2017-12-28T03:05:23.178Z,4.10
2017-12-28T03:06:23.881Z,4.02
2017-12-28T03:07:24.584Z,4.02
2017-12-28T03:08:25.287Z,4.05
2017-12-28T03:09:26.002Z,3.96
2017-12-28T03:10:26.717Z,3.98
2017-12-28T03:11:27.432Z,3.92
2017-12-28T03:12:28.134Z,3.94
2017-12-28T03:13:28.836Z,3.87
2017-12-28T03:14:29.537Z,4.01
2017-12-28T03:15:30.239Z,3.91
2017-12-28T03:16:30.939Z,3.87
2017-12-28T03:17:31.640Z,3.92
2017-12-28T03:18:32.353Z,3.98
2017-12-28T03:19:33.053Z,3.92
2017-12-28T03:20:33.753Z,3.91
2017-12-28T03:21:34.457Z,3.81
2017-12-28T03:22:35.170Z,3.83
2017-12-28T03:23:35.872Z,3.86
2017-12-28T03:24:36.586Z,3.84
2017-12-28T03:25:37.288Z,3.84
2017-12-28T03:26:38.002Z,3.78
2017-12-28T03:27:38.703Z,3.87
2017-12-28T03:28:39.405Z,3.74
2017-12-28T03:29:40.108Z,3.76
2017-12-28T03:30:40.822Z,3.84
2017-12-28T03:31:41.523Z,3.80
2017-12-28T03:32:42.222Z,3.78
2017-12-28T03:33:42.935Z,3.78
2017-12-28T03:34:43.635Z,3.74
2017-12-28T03:35:44.336Z,3.74
2017-12-28T03:36:45.036Z,3.76
2017-12-28T03:37:45.749Z,3.70
2017-12-28T03:38:46.451Z,3.73
2017-12-28T03:39:47.152Z,3.73
2017-12-28T03:40:47.865Z,3.70
2017-12-28T03:41:48.565Z,3.63
2017-12-28T03:42:49.265Z,3.69
2017-12-28T03:43:49.965Z,3.70
2017-12-28T03:44:50.665Z,3.76
2017-12-28T03:45:51.379Z,3.65
2017-12-28T03:46:52.078Z,3.63
2017-12-28T03:47:52.779Z,3.68
2017-12-28T03:48:53.482Z,3.73
2017-12-28T03:49:54.194Z,3.62
2017-12-28T03:50:54.894Z,3.66
2017-12-28T03:51:55.594Z,3.73
2017-12-28T03:52:56.297Z,3.73
2017-12-28T03:53:56.999Z,3.63
2017-12-28T03:54:57.700Z,3.68
2017-12-28T03:55:58.401Z,3.66
2017-12-28T03:56:59.115Z,3.66
2017-12-28T03:57:59.815Z,3.73
2017-12-28T03:59:00.515Z,3.66
2017-12-28T04:00:01.225Z,3.62
2017-12-28T04:01:01.927Z,3.68
2017-12-28T04:02:02.641Z,3.68
2017-12-28T04:03:03.352Z,3.78
2017-12-28T04:04:04.066Z,3.65
2017-12-28T04:05:04.769Z,3.70
2017-12-28T04:06:05.483Z,3.68
2017-12-28T04:07:06.186Z,3.63
2017-12-28T04:08:06.886Z,3.73
2017-12-28T04:09:07.598Z,3.74
2017-12-28T04:10:08.312Z,3.73
2017-12-28T04:11:09.012Z,3.65
2017-12-28T04:12:09.714Z,3.59
2017-12-28T04:13:10.429Z,3.58
2017-12-28T04:14:11.144Z,3.63
2017-12-28T04:15:11.858Z,3.63
2017-12-28T04:16:12.557Z,3.59
2017-12-28T04:17:13.272Z,3.56
2017-12-28T04:18:13.982Z,3.60
2017-12-28T04:19:14.684Z,3.58
2017-12-28T04:20:15.386Z,3.58
2017-12-28T04:21:16.087Z,3.59
2017-12-28T04:22:16.790Z,3.56
2017-12-28T04:23:17.489Z,3.56
2017-12-28T04:24:18.189Z,3.60
2017-12-28T04:25:18.890Z,3.58
2017-12-28T04:26:19.592Z,3.51
2017-12-28T04:27:20.306Z,3.58
2017-12-28T04:28:21.018Z,3.59
2017-12-28T04:29:21.719Z,3.55
2017-12-28T04:30:22.420Z,3.58
2017-12-28T04:31:23.122Z,3.56
2017-12-28T04:32:23.836Z,3.58
2017-12-28T04:33:24.536Z,3.66
2017-12-28T04:34:25.240Z,3.65
2017-12-28T04:35:25.940Z,3.70
2017-12-28T04:36:26.648Z,3.66
2017-12-28T04:37:27.342Z,3.74
2017-12-28T04:38:28.043Z,3.73
2017-12-28T04:39:28.754Z,3.76
2017-12-28T04:40:29.467Z,3.76
2017-12-28T04:41:30.170Z,3.74
2017-12-28T04:42:30.870Z,3.77
2017-12-28T04:43:31.585Z,3.70
2017-12-28T04:44:32.288Z,3.84
2017-12-28T04:45:32.992Z,3.73
2017-12-28T04:46:33.695Z,3.80
2017-12-28T04:47:34.397Z,3.73
2017-12-28T04:48:35.115Z,3.78
2017-12-28T04:49:35.816Z,3.76
2017-12-28T04:50:36.517Z,3.73
2017-12-28T04:51:37.229Z,3.68
2017-12-28T04:52:37.941Z,3.74
2017-12-28T04:53:38.654Z,3.69
2017-12-28T04:54:39.357Z,3.63
2017-12-28T04:55:40.076Z,3.74
2017-12-28T04:56:40.788Z,3.70
2017-12-28T04:57:41.487Z,3.66
2017-12-28T04:58:42.189Z,3.77
2017-12-28T04:59:42.891Z,3.60
2017-12-28T05:00:43.604Z,3.65
2017-12-28T05:01:44.304Z,3.66
2017-12-28T05:02:45.009Z,3.70
2017-12-28T05:03:45.717Z,3.69
2017-12-28T05:04:46.420Z,3.60
2017-12-28T05:05:47.120Z,3.69
2017-12-28T05:06:47.824Z,3.66
2017-12-28T05:07:48.523Z,3.69
2017-12-28T05:08:49.224Z,3.60
2017-12-28T05:09:49.924Z,3.68
2017-12-28T05:10:50.626Z,3.59
2017-12-28T05:11:51.329Z,3.62
2017-12-28T05:12:52.030Z,3.60
2017-12-28T05:13:52.732Z,3.58
2017-12-28T05:14:53.450Z,3.56
2017-12-28T05:15:54.148Z,3.55
2017-12-28T05:16:54.851Z,3.55
2017-12-28T05:17:55.554Z,3.55
2017-12-28T05:18:56.256Z,3.58
2017-12-28T05:19:56.958Z,3.50
2017-12-28T05:20:57.660Z,3.51
2017-12-28T05:21:58.365Z,3.47
2017-12-28T05:22:59.066Z,3.50
2017-12-28T05:23:59.769Z,3.60
2017-12-28T05:25:00.471Z,3.47
2017-12-28T05:26:01.174Z,3.60
2017-12-28T05:27:01.876Z,3.56
2017-12-28T05:28:02.579Z,3.56
2017-12-28T05:29:03.285Z,3.58
2017-12-28T05:30:03.998Z,3.59
2017-12-28T05:31:04.711Z,3.68
2017-12-28T05:32:05.413Z,3.62
2017-12-28T05:33:06.114Z,3.66
2017-12-28T05:34:06.816Z,3.73
2017-12-28T05:35:07.520Z,3.63
2017-12-28T05:36:08.218Z,3.73
2017-12-28T05:37:08.920Z,3.63
2017-12-28T05:38:09.623Z,3.68
2017-12-28T05:39:10.336Z,3.69
2017-12-28T05:40:11.050Z,3.74
2017-12-28T05:41:11.751Z,3.66
2017-12-28T05:42:12.454Z,3.76
2017-12-28T05:43:13.155Z,3.65
2017-12-28T05:44:13.856Z,3.58
2017-12-28T05:45:14.558Z,3.69
2017-12-28T05:46:15.257Z,3.66
2017-12-28T05:47:15.964Z,3.68
2017-12-28T05:48:16.671Z,3.73
2017-12-28T05:49:17.371Z,3.73
2017-12-28T05:50:18.072Z,3.60
2017-12-28T05:51:18.784Z,3.65
2017-12-28T05:52:19.488Z,3.60
2017-12-28T05:53:20.184Z,3.60
2017-12-28T05:54:20.885Z,3.60
2017-12-28T05:55:21.586Z,3.59
2017-12-28T05:56:22.288Z,3.62
2017-12-28T05:57:22.990Z,3.62
2017-12-28T05:58:23.691Z,3.59
2017-12-28T05:59:24.393Z,3.69
2017-12-28T06:00:25.096Z,3.63
2017-12-28T06:01:25.799Z,3.63
2017-12-28T06:02:26.502Z,3.58
2017-12-28T06:03:27.205Z,3.58
2017-12-28T06:04:27.909Z,3.60
2017-12-28T06:05:28.611Z,3.59
2017-12-28T06:06:29.316Z,3.59
2017-12-28T06:07:30.020Z,3.59
2017-12-28T06:08:30.722Z,3.66
2017-12-28T06:09:31.425Z,3.55
2017-12-28T06:10:32.127Z,3.56
2017-12-28T06:11:32.842Z,3.66
2017-12-28T06:12:33.543Z,3.60
2017-12-28T06:13:34.244Z,3.63
2017-12-28T06:14:34.946Z,3.62
2017-12-28T06:15:35.649Z,3.60
2017-12-28T06:16:36.352Z,3.65
2017-12-28T06:17:37.055Z,3.62
2017-12-28T06:18:37.759Z,3.70
2017-12-28T06:19:38.474Z,3.60
2017-12-28T06:20:39.173Z,3.69
2017-12-28T06:21:39.873Z,3.69
2017-12-28T06:22:40.574Z,3.66
2017-12-28T06:23:41.276Z,3.70
2017-12-28T06:24:41.980Z,3.65
2017-12-28T06:25:42.684Z,3.62
2017-12-28T06:26:43.387Z,3.65
2017-12-28T06:27:44.090Z,3.65
2017-12-28T06:28:44.804Z,3.63
2017-12-28T06:29:45.506Z,3.65
2017-12-28T06:30:46.217Z,3.69
2017-12-28T06:31:46.925Z,3.66
2017-12-28T06:32:47.617Z,3.66
2017-12-28T06:33:48.320Z,3.68
2017-12-28T06:34:49.032Z,3.63
2017-12-28T06:35:49.733Z,3.65
2017-12-28T06:36:50.433Z,3.66
2017-12-28T06:37:51.134Z,3.68
2017-12-28T06:38:51.836Z,3.68
2017-12-28T06:39:52.537Z,3.73
2017-12-28T06:40:53.250Z,3.62
2017-12-28T06:41:53.951Z,3.68
2017-12-28T06:42:54.649Z,3.69
2017-12-28T06:43:55.351Z,3.69
2017-12-28T06:44:56.053Z,3.70
2017-12-28T06:45:56.755Z,3.66
2017-12-28T06:46:57.457Z,3.65
2017-12-28T06:47:58.171Z,3.73
2017-12-28T06:48:58.884Z,3.74
2017-12-28T06:49:59.583Z,3.74
2017-12-28T06:51:00.286Z,3.73
2017-12-28T06:52:00.987Z,3.69
2017-12-28T06:53:01.688Z,3.73
2017-12-28T06:54:02.390Z,3.70
2017-12-28T06:55:03.091Z,3.68
2017-12-28T06:56:03.792Z,3.66
2017-12-28T06:57:04.493Z,3.60
2017-12-28T06:58:05.205Z,3.63
2017-12-28T06:59:05.906Z,3.58
2017-12-28T07:00:06.604Z,3.59
2017-12-28T07:01:07.325Z,3.59
2017-12-28T07:02:08.030Z,3.59
2017-12-28T07:03:08.747Z,3.60
2017-12-28T07:04:09.459Z,3.60
2017-12-28T07:05:10.161Z,3.62
2017-12-28T07:06:10.862Z,3.58
2017-12-28T07:07:11.604Z,3.59
2017-12-28T07:08:12.267Z,3.55
2017-12-28T07:09:12.971Z,3.51
2017-12-28T07:10:13.673Z,3.47
2017-12-28T07:11:14.387Z,3.62
2017-12-28T07:12:15.089Z,3.62
2017-12-28T07:13:15.789Z,3.51
2017-12-28T07:14:16.492Z,3.58
2017-12-28T07:15:17.195Z,3.55
2017-12-28T07:16:17.909Z,3.50
2017-12-28T07:17:18.611Z,3.50
2017-12-28T07:18:19.314Z,3.53
2017-12-28T07:19:20.027Z,3.42
2017-12-28T07:20:20.730Z,3.45
2017-12-28T07:21:21.432Z,3.42
2017-12-28T07:22:22.148Z,3.42
2017-12-28T07:23:22.851Z,3.37
2017-12-28T07:24:23.555Z,3.47
2017-12-28T07:25:24.258Z,3.36
2017-12-28T07:26:24.975Z,3.44
2017-12-28T07:27:25.679Z,3.45
2017-12-28T07:28:26.382Z,3.42
2017-12-28T07:29:27.084Z,3.34
2017-12-28T07:30:27.788Z,3.37
2017-12-28T07:31:28.491Z,3.36
2017-12-28T07:32:29.195Z,3.36
2017-12-28T07:33:29.901Z,3.31
2017-12-28T07:34:30.617Z,3.19
2017-12-28T07:35:31.318Z,3.14
2017-12-28T07:36:32.020Z,3.29
2017-12-28T07:37:32.723Z,3.28
2017-12-28T07:38:33.424Z,3.19
2017-12-28T07:39:34.127Z,3.21
2017-12-28T07:40:34.829Z,3.21
2017-12-28T07:41:35.532Z,3.21
2017-12-28T07:42:36.247Z,3.16
2017-12-28T07:43:36.951Z,3.18
2017-12-28T07:44:37.668Z,3.19
2017-12-28T07:45:38.384Z,3.14
2017-12-28T07:46:39.089Z,3.19
2017-12-28T07:47:39.793Z,3.14
2017-12-28T07:48:40.497Z,3.16
2017-12-28T07:49:41.201Z,3.13
2017-12-28T07:50:41.906Z,3.18
2017-12-28T07:51:42.611Z,3.11
2017-12-28T07:52:43.315Z,3.14
2017-12-28T07:53:44.019Z,3.04
2017-12-28T07:54:44.723Z,3.10
2017-12-28T07:55:45.428Z,3.11
2017-12-28T07:56:46.144Z,3.10
2017-12-28T07:57:46.864Z,3.10
2017-12-28T07:58:47.568Z,3.01
2017-12-28T07:59:48.272Z,3.03
2017-12-28T08:00:48.975Z,3.11
2017-12-28T08:01:49.691Z,3.10
2017-12-28T08:02:50.407Z,3.08
2017-12-28T08:03:51.111Z,3.04
2017-12-28T08:04:51.829Z,3.01
2017-12-28T08:05:52.550Z,3.07
2017-12-28T08:06:53.250Z,3.13
2017-12-28T08:07:53.957Z,3.00
2017-12-28T08:08:54.661Z,3.08
2017-12-28T08:09:55.364Z,3.07
2017-12-28T08:10:56.068Z,3.11
2017-12-28T08:11:56.775Z,3.10
2017-12-28T08:12:57.479Z,3.05
2017-12-28T08:13:58.183Z,2.98
2017-12-28T08:14:58.902Z,3.05
2017-12-28T08:15:59.609Z,3.05
2017-12-28T08:17:00.316Z,3.04
2017-12-28T08:18:01.020Z,3.08
2017-12-28T08:19:01.730Z,3.01
2017-12-28T08:20:02.444Z,3.13
2017-12-28T08:21:03.149Z,3.10
2017-12-28T08:22:03.855Z,3.07
2017-12-28T08:23:04.559Z,3.08
2017-12-28T08:24:05.280Z,3.07
2017-12-28T08:25:05.996Z,3.10
2017-12-28T08:26:06.702Z,3.16
2017-12-28T08:27:07.409Z,3.00
2017-12-28T08:28:08.113Z,3.05
2017-12-28T08:29:08.819Z,3.01
2017-12-28T08:30:09.525Z,3.13
2017-12-28T08:31:10.236Z,3.04
2017-12-28T08:32:10.939Z,3.13
2017-12-28T08:33:11.647Z,3.10
2017-12-28T08:34:12.355Z,3.08
2017-12-28T08:35:13.061Z,3.04
2017-12-28T08:36:13.766Z,3.01
2017-12-28T08:37:14.482Z,3.13
2017-12-28T08:38:15.189Z,3.10
2017-12-28T08:39:15.910Z,3.03
2017-12-28T08:40:16.619Z,3.08
2017-12-28T08:41:17.326Z,3.04
2017-12-28T08:42:18.031Z,3.10
2017-12-28T08:43:18.737Z,3.16
2017-12-28T08:44:19.442Z,3.00
2017-12-28T08:45:20.151Z,3.16
2017-12-28T08:46:20.857Z,3.05
2017-12-28T08:47:21.564Z,3.10
2017-12-28T08:48:22.284Z,3.10
2017-12-28T08:49:22.992Z,3.10
2017-12-28T08:50:23.697Z,3.11
2017-12-28T08:51:24.404Z,3.10
2017-12-28T08:52:25.109Z,3.07
2017-12-28T08:53:25.833Z,3.10
2017-12-28T08:54:26.547Z,3.11
2017-12-28T08:55:27.265Z,3.07
2017-12-28T08:56:27.970Z,3.04
2017-12-28T08:57:28.680Z,3.08
2017-12-28T08:58:29.393Z,3.16
2017-12-28T08:59:30.099Z,3.13
2017-12-28T09:00:30.802Z,3.19
2017-12-28T09:01:31.508Z,3.19
2017-12-28T09:02:32.214Z,3.21
2017-12-28T09:03:32.920Z,3.19
2017-12-28T09:04:33.628Z,3.21
2017-12-28T09:05:34.338Z,3.22
2017-12-28T09:06:35.044Z,3.37
2017-12-28T09:07:35.752Z,3.32
2017-12-28T09:08:36.457Z,3.36
2017-12-28T09:09:37.164Z,3.48
2017-12-28T09:10:37.873Z,3.42
2017-12-28T09:11:38.580Z,3.45
2017-12-28T09:12:39.288Z,3.60
2017-12-28T09:13:40.010Z,3.88
2017-12-28T09:14:40.719Z,4.02
2017-12-28T09:15:41.442Z,4.28
2017-12-28T09:16:42.151Z,4.44
2017-12-28T09:17:42.859Z,4.67
2017-12-28T09:18:43.570Z,5.14
2017-12-28T09:19:44.280Z,5.39
2017-12-28T09:20:44.993Z,5.51
2017-12-28T09:21:45.704Z,5.47
2017-12-28T09:22:46.428Z,5.69
2017-12-28T09:23:47.154Z,6.14
2017-12-28T09:24:47.867Z,6.30
2017-12-28T09:25:48.592Z,6.63
2017-12-28T09:26:49.305Z,6.93
2017-12-28T09:27:50.020Z,6.75
2017-12-28T09:28:50.748Z,6.77
2017-12-28T09:29:51.464Z,6.69
2017-12-28T09:30:52.178Z,6.78
2017-12-28T09:31:52.895Z,6.85
2017-12-28T09:32:53.607Z,6.72
2017-12-28T09:33:54.322Z,6.70
2017-12-28T09:34:55.039Z,6.78
2017-12-28T09:35:55.755Z,6.38
2017-12-28T09:36:56.473Z,6.08
2017-12-28T09:37:57.191Z,6.33
2017-12-28T09:38:57.908Z,6.69
2017-12-28T09:39:58.623Z,6.74
2017-12-28T09:40:59.340Z,6.97
2017-12-28T09:42:00.068Z,7.33
2017-12-28T09:43:00.783Z,7.67
2017-12-28T09:44:01.500Z,7.43
2017-12-28T09:45:02.219Z,7.53
2017-12-28T09:46:02.936Z,7.73
2017-12-28T09:47:03.662Z,7.58
2017-12-28T09:48:04.379Z,7.51
2017-12-28T09:49:05.096Z,7.32
2017-12-28T09:50:05.811Z,6.84
2017-12-28T09:51:06.541Z,6.81
2017-12-28T09:52:07.259Z,7.00
2017-12-28T09:53:07.987Z,7.23
2017-12-28T09:54:08.703Z,6.95
2017-12-28T09:55:09.433Z,6.82
2017-12-28T09:56:10.153Z,6.74
2017-12-28T09:57:10.869Z,6.70
2017-12-28T09:58:11.586Z,7.02
2017-12-28T09:59:12.315Z,7.50
2017-12-28T10:00:13.033Z,7.63
2017-12-28T10:01:13.751Z,7.83
2017-12-28T10:02:14.471Z,7.61
2017-12-28T10:03:15.190Z,7.87
2017-12-28T10:04:15.908Z,7.61
2017-12-28T10:05:16.626Z,7.97
2017-12-28T10:06:17.344Z,8.00
2017-12-28T10:07:18.075Z,8.06
2017-12-28T10:08:18.793Z,8.51
2017-12-28T10:09:19.513Z,8.51
2017-12-28T10:10:20.231Z,8.73
2017-12-28T10:11:20.950Z,8.31
2017-12-28T10:12:21.668Z,8.69
2017-12-28T10:13:22.399Z,8.23
2017-12-28T10:14:23.116Z,8.06
2017-12-28T10:15:23.852Z,7.98
2017-12-28T10:16:24.570Z,8.09
2017-12-28T10:17:25.288Z,8.24
2017-12-28T10:18:26.007Z,8.30
2017-12-28T10:19:26.726Z,8.26
2017-12-28T10:20:27.456Z,8.55
2017-12-28T10:21:28.175Z,8.38
2017-12-28T10:22:28.895Z,8.24
2017-12-28T10:23:29.616Z,8.28
2017-12-28T10:24:30.347Z,8.89
2017-12-28T10:25:31.066Z,9.22
2017-12-28T10:26:31.798Z,8.91
2017-12-28T10:27:32.524Z,8.99
2017-12-28T10:28:33.237Z,8.67
2017-12-28T10:29:33.957Z,8.94
2017-12-28T10:30:34.675Z,8.87
2017-12-28T10:31:35.396Z,8.87
2017-12-28T10:32:36.117Z,8.70
2017-12-28T10:33:36.835Z,9.10
2017-12-28T10:34:37.551Z,9.21
2017-12-28T10:35:38.270Z,9.50
2017-12-28T10:36:39.004Z,9.14
2017-12-28T10:37:39.735Z,8.66
2017-12-28T10:38:40.457Z,9.37
2017-12-28T10:39:41.189Z,9.61
2017-12-28T10:40:41.913Z,9.41
2017-12-28T10:41:42.651Z,9.31
2017-12-28T10:42:43.375Z,9.13
2017-12-28T10:43:44.097Z,8.63
2017-12-28T10:44:44.820Z,9.25
2017-12-28T10:45:45.552Z,9.13
2017-12-28T10:46:46.272Z,9.65
2017-12-28T10:47:46.994Z,8.73
2017-12-28T10:48:47.716Z,9.31
2017-12-28T10:49:48.436Z,9.34
2017-12-28T10:50:49.160Z,9.14
2017-12-28T10:51:49.893Z,9.08
2017-12-28T10:52:50.615Z,8.58
2017-12-28T10:53:51.336Z,8.88
2017-12-28T10:54:52.056Z,9.16
2017-12-28T10:55:52.776Z,8.97
2017-12-28T10:56:53.495Z,9.22
2017-12-28T10:57:54.216Z,8.94
2017-12-28T10:58:54.939Z,8.73
2017-12-28T10:59:55.675Z,9.11
2017-12-28T11:00:56.392Z,9.34
2017-12-28T11:01:57.111Z,9.55
2017-12-28T11:02:57.830Z,9.84
2017-12-28T11:03:58.550Z,9.99
2017-12-28T11:04:59.270Z,9.28
2017-12-28T11:06:00.021Z,9.25
2017-12-28T11:07:00.733Z,9.32
2017-12-28T11:08:01.453Z,9.21
2017-12-28T11:09:02.180Z,8.67
2017-12-28T11:10:02.893Z,8.88
2017-12-28T11:11:03.611Z,9.14
2017-12-28T11:12:04.351Z,8.55
2017-12-28T11:13:05.063Z,8.61
2017-12-28T11:14:05.783Z,8.26
2017-12-28T11:15:06.502Z,8.06
2017-12-28T11:16:07.222Z,8.00
2017-12-28T11:17:07.941Z,7.60
2017-12-28T11:18:08.657Z,7.51
2017-12-28T11:19:09.375Z,7.75
2017-12-28T11:20:10.095Z,7.97
2017-12-28T11:21:10.811Z,8.12
2017-12-28T11:22:11.531Z,7.98
2017-12-28T11:23:12.249Z,7.87
2017-12-28T11:24:12.968Z,7.87
2017-12-28T11:25:13.685Z,8.00
2017-12-28T11:26:14.403Z,7.88
2017-12-28T11:27:15.119Z,7.85
2017-12-28T11:28:15.838Z,7.33
2017-12-28T11:29:16.557Z,7.38
2017-12-28T11:30:17.273Z,7.69
2017-12-28T11:31:17.989Z,8.00
2017-12-28T11:32:18.720Z,8.00
2017-12-28T11:33:19.435Z,7.54
2017-12-28T11:34:20.152Z,7.07
2017-12-28T11:35:20.868Z,7.17
2017-12-28T11:36:21.585Z,7.23
2017-12-28T11:37:22.304Z,7.69
2017-12-28T11:38:23.027Z,7.48
2017-12-28T11:39:23.742Z,7.66
2017-12-28T11:40:24.456Z,7.63
2017-12-28T11:41:25.173Z,7.42
2017-12-28T11:42:25.904Z,7.42
2017-12-28T11:43:26.632Z,7.53
2017-12-28T11:44:27.347Z,7.32
2017-12-28T11:45:28.063Z,6.97
2017-12-28T11:46:28.778Z,7.35
2017-12-28T11:47:29.494Z,7.35
2017-12-28T11:48:30.207Z,7.18
2017-12-28T11:49:30.924Z,7.32
2017-12-28T11:50:31.642Z,7.33
2017-12-28T11:51:32.370Z,7.33
2017-12-28T11:52:33.083Z,6.96
2017-12-28T11:53:33.798Z,6.77
2017-12-28T11:54:34.514Z,6.56
2017-12-28T11:55:35.224Z,6.46
2017-12-28T11:56:35.953Z,6.35
2017-12-28T11:57:36.666Z,6.27
2017-12-28T11:58:37.380Z,5.94
2017-12-28T11:59:38.092Z,5.89
2017-12-28T12:00:38.806Z,6.09
2017-12-28T12:01:39.518Z,6.16
2017-12-28T12:02:40.229Z,6.31
2017-12-28T12:03:40.942Z,6.35
2017-12-28T12:04:41.655Z,6.35
2017-12-28T12:05:42.381Z,6.69
2017-12-28T12:06:43.096Z,6.66
2017-12-28T12:07:43.822Z,6.69
2017-12-28T12:08:44.545Z,6.97
2017-12-28T12:09:45.257Z,7.14
2017-12-28T12:10:45.971Z,7.48
2017-12-28T12:11:46.684Z,7.66
2017-12-28T12:12:47.398Z,7.54
2017-12-28T12:13:48.127Z,7.42
2017-12-28T12:14:48.840Z,7.43
2017-12-28T12:15:49.553Z,7.17
2017-12-28T12:16:50.266Z,6.81
2017-12-28T12:17:50.981Z,6.74
2017-12-28T12:18:51.694Z,6.88
2017-12-28T12:19:52.407Z,6.67
2017-12-28T12:20:53.120Z,6.66
2017-12-28T12:21:53.834Z,6.56
2017-12-28T12:22:54.560Z,6.67
2017-12-28T12:23:55.273Z,6.70
2017-12-28T12:24:55.985Z,6.57
2017-12-28T12:25:56.709Z,6.67
2017-12-28T12:26:57.423Z,6.78
2017-12-28T12:27:58.135Z,7.00
2017-12-28T12:28:58.850Z,7.23
2017-12-28T12:29:59.576Z,7.43
2017-12-28T12:31:00.289Z,6.74
2017-12-28T12:32:01.001Z,6.54
2017-12-28T12:33:01.714Z,6.39
2017-12-28T12:34:02.426Z,6.39
2017-12-28T12:35:03.139Z,6.39
2017-12-28T12:36:03.863Z,6.35
2017-12-28T12:37:04.574Z,6.33
2017-12-28T12:38:05.286Z,6.04
2017-12-28T12:39:05.998Z,6.01
2017-12-28T12:40:06.709Z,6.07
2017-12-28T12:41:07.421Z,6.05
2017-12-28T12:42:08.137Z,6.04
2017-12-28T12:43:08.860Z,5.79
2017-12-28T12:44:09.571Z,5.79
2017-12-28T12:45:10.281Z,5.90
2017-12-28T12:46:10.992Z,5.86
2017-12-28T12:47:11.705Z,5.79
2017-12-28T12:48:12.415Z,5.71
2017-12-28T12:49:13.124Z,5.73
2017-12-28T12:50:13.834Z,5.75
2017-12-28T12:51:14.545Z,5.66
2017-12-28T12:52:15.254Z,5.69
2017-12-28T12:53:15.974Z,5.73
2017-12-28T12:54:16.684Z,5.79
2017-12-28T12:55:17.394Z,5.82
2017-12-28T12:56:18.104Z,5.93
2017-12-28T12:57:18.814Z,5.84
2017-12-28T12:58:19.525Z,5.89
2017-12-28T12:59:20.237Z,5.82
2017-12-28T13:00:20.948Z,5.94
2017-12-28T13:01:21.661Z,5.99
2017-12-28T13:02:22.371Z,6.08
2017-12-28T13:03:23.081Z,6.08
2017-12-28T13:04:23.792Z,6.07
2017-12-28T13:05:24.502Z,6.02
2017-12-28T13:06:25.224Z,6.35
2017-12-28T13:07:25.949Z,6.69
2017-12-28T13:08:26.673Z,6.82
2017-12-28T13:09:27.385Z,6.82
2017-12-28T13:10:28.097Z,6.70
2017-12-28T13:11:28.808Z,6.96
2017-12-28T13:12:29.533Z,7.23
2017-12-28T13:13:30.247Z,7.29
2017-12-28T13:14:30.959Z,7.63
2017-12-28T13:15:31.672Z,7.24
2017-12-28T13:16:32.382Z,7.39
2017-12-28T13:17:33.105Z,7.05
2017-12-28T13:18:33.816Z,7.18
2017-12-28T13:19:34.528Z,7.48
2017-12-28T13:20:35.240Z,7.56
2017-12-28T13:21:35.951Z,7.43
2017-12-28T13:22:36.662Z,6.99
2017-12-28T13:23:37.373Z,6.72
2017-12-28T13:24:38.090Z,6.49
2017-12-28T13:25:38.802Z,6.54
2017-12-28T13:26:39.512Z,6.39
2017-12-28T13:27:40.223Z,6.28